createdAt,value
2019-02-20T00:00:44.231Z,99.30
2019-02-20T00:03:12.944Z,99.30
2019-02-20T00:05:41.703Z,99.40
2019-02-20T00:08:10.423Z,99.50
2019-02-20T00:10:39.145Z,99.50
2019-02-20T00:13:07.861Z,99.60
2019-02-20T00:15:36.571Z,99.80
2019-02-20T00:18:05.319Z,99.90
2019-02-20T00:20:33.965Z,99.90
2019-02-20T00:23:02.612Z,99.90
2019-02-20T00:25:31.327Z,99.90
2019-02-20T00:28:00.058Z,99.90
2019-02-20T00:30:28.812Z,99.90
2019-02-20T00:32:57.520Z,99.90
2019-02-20T00:35:26.168Z,99.90
2019-02-20T00:37:54.876Z,99.90
2019-02-20T00:40:23.588Z,99.90
2019-02-20T00:42:52.338Z,99.90
2019-02-20T00:45:22.693Z,99.90
2019-02-20T00:47:58.848Z,99.90
2019-02-20T00:50:29.211Z,99.90
2019-02-20T00:53:05.379Z,99.90
2019-02-20T00:55:34.091Z,99.90
2019-02-20T00:58:02.801Z,99.90
2019-02-20T01:00:31.528Z,99.90
2019-02-20T01:03:00.232Z,99.90
2019-02-20T01:05:28.991Z,99.90
2019-02-20T01:07:57.641Z,99.70
2019-02-20T01:10:26.363Z,99.60
2019-02-20T01:12:55.080Z,99.30
2019-02-20T01:15:23.801Z,99.30
2019-02-20T01:17:52.553Z,99.60
2019-02-20T01:20:21.271Z,99.60
2019-02-20T01:22:59.429Z,99.60
2019-02-20T01:25:20.353Z,99.80
2019-02-20T01:27:49.068Z,99.40
2019-02-20T01:30:17.820Z,99.30
2019-02-20T01:32:46.552Z,99.30
2019-02-20T01:35:15.266Z,99.10
2019-02-20T01:37:43.988Z,99.30
2019-02-20T01:40:12.776Z,99.20
2019-02-20T01:42:41.535Z,99.10
2019-02-20T01:45:10.251Z,99.20
2019-02-20T01:47:38.963Z,99.00
2019-02-20T01:50:08.173Z,99.40
2019-02-20T01:52:37.171Z,99.40
2019-02-20T01:55:07.926Z,99.50
2019-02-20T01:57:36.634Z,99.30
2019-02-20T02:00:08.188Z,99.10
2019-02-20T02:02:36.903Z,99.10
2019-02-20T02:05:14.914Z,98.80
2019-02-20T02:07:37.292Z,98.80
2019-02-20T02:10:08.302Z,98.80
2019-02-20T02:12:37.016Z,98.70
2019-02-20T02:15:07.539Z,98.60
2019-02-20T02:17:36.252Z,98.80
2019-02-20T02:20:07.408Z,99.10
2019-02-20T02:22:36.113Z,99.30
2019-02-20T02:25:06.126Z,98.80
2019-02-20T02:27:34.863Z,98.70
2019-02-20T02:30:04.728Z,98.60
2019-02-20T02:32:33.467Z,98.60
2019-02-20T02:35:02.184Z,98.50
2019-02-20T02:37:30.897Z,98.50
2019-02-20T02:39:59.625Z,98.40
2019-02-20T02:42:28.329Z,98.50
2019-02-20T02:44:57.104Z,98.30
2019-02-20T02:47:25.833Z,97.90
2019-02-20T02:49:54.539Z,98.00
2019-02-20T02:52:23.257Z,98.10
2019-02-20T02:54:51.971Z,98.20
2019-02-20T02:57:20.722Z,98.10
2019-02-20T02:59:49.427Z,98.20
2019-02-20T03:02:18.142Z,98.40
2019-02-20T03:04:46.871Z,98.50
2019-02-20T03:07:15.584Z,98.50
2019-02-20T03:09:44.405Z,98.60
2019-02-20T03:12:13.115Z,98.70
2019-02-20T03:14:41.828Z,98.80
2019-02-20T03:17:10.612Z,98.80
2019-02-20T03:19:39.332Z,98.90
2019-02-20T03:22:08.088Z,99.00
2019-02-20T03:24:36.803Z,99.10
2019-02-20T03:27:05.515Z,99.20
2019-02-20T03:29:34.240Z,99.10
2019-02-20T03:32:03.024Z,99.30
2019-02-20T03:34:31.692Z,99.40
2019-02-20T03:37:00.407Z,99.80
2019-02-20T03:39:29.120Z,99.90
2019-02-20T03:41:57.875Z,99.90
2019-02-20T03:44:26.591Z,99.90
2019-02-20T03:46:55.324Z,99.90
2019-02-20T03:49:24.032Z,99.90
2019-02-20T03:51:52.748Z,99.80
2019-02-20T03:54:21.472Z,99.80
2019-02-20T03:56:50.176Z,99.90
2019-02-20T03:59:18.925Z,99.70
2019-02-20T04:01:47.639Z,99.70
2019-02-20T04:04:16.350Z,99.70
2019-02-20T04:06:46.058Z,99.80
2019-02-20T04:09:14.805Z,99.80
2019-02-20T04:11:43.556Z,99.90
2019-02-20T04:14:12.304Z,99.90
2019-02-20T04:16:40.942Z,99.80
2019-02-20T04:19:09.660Z,99.90
2019-02-20T04:21:38.373Z,99.90
2019-02-20T04:24:07.109Z,99.90
2019-02-20T04:26:37.392Z,99.80
2019-02-20T04:29:06.101Z,99.80
2019-02-20T04:31:34.817Z,99.90
2019-02-20T04:34:03.532Z,99.90
2019-02-20T04:36:32.271Z,99.90
2019-02-20T04:39:00.984Z,99.90
2019-02-20T04:41:29.706Z,99.90
2019-02-20T04:43:58.348Z,99.90
2019-02-20T04:46:27.064Z,99.90
2019-02-20T04:48:55.808Z,99.90
2019-02-20T04:51:24.520Z,99.90
2019-02-20T04:53:53.236Z,99.80
2019-02-20T04:56:21.953Z,99.90
2019-02-20T04:58:53.600Z,99.90
2019-02-20T05:01:22.345Z,99.90
2019-02-20T05:03:51.069Z,99.90
2019-02-20T05:06:19.712Z,99.90
2019-02-20T05:08:49.287Z,99.90
2019-02-20T05:11:18.004Z,99.90
2019-02-20T05:13:46.745Z,99.90
2019-02-20T05:16:15.460Z,99.90
2019-02-20T05:18:44.194Z,99.90
2019-02-20T05:21:12.918Z,99.90
2019-02-20T05:23:42.844Z,99.90
2019-02-20T05:26:11.787Z,99.90
2019-02-20T05:28:40.429Z,99.90
2019-02-20T05:31:09.147Z,99.90
2019-02-20T05:33:37.863Z,99.90
2019-02-20T05:36:06.657Z,99.90
2019-02-20T05:38:35.402Z,99.90
2019-02-20T05:41:04.115Z,99.90
2019-02-20T05:43:32.830Z,99.90
2019-02-20T05:46:01.568Z,99.90
2019-02-20T05:48:30.312Z,99.90
2019-02-20T05:50:59.056Z,99.90
2019-02-20T05:53:27.705Z,99.90
2019-02-20T05:55:56.452Z,99.90
2019-02-20T05:58:25.243Z,99.90
2019-02-20T06:00:53.958Z,99.90
2019-02-20T06:03:22.704Z,99.90
2019-02-20T06:05:51.417Z,99.90
2019-02-20T06:08:20.143Z,99.90
2019-02-20T06:10:49.704Z,99.90
2019-02-20T06:13:18.415Z,99.90
2019-02-20T06:15:47.184Z,99.90
2019-02-20T06:18:15.911Z,99.90
2019-02-20T06:20:44.626Z,99.90
2019-02-20T06:23:13.358Z,99.90
2019-02-20T06:25:42.056Z,99.90
2019-02-20T06:28:10.792Z,99.90
2019-02-20T06:30:39.510Z,99.90
2019-02-20T06:33:08.224Z,99.90
2019-02-20T06:35:36.948Z,99.90
2019-02-20T06:38:05.662Z,99.90
2019-02-20T06:40:34.406Z,99.90
2019-02-20T06:43:03.128Z,99.90
2019-02-20T06:45:31.928Z,99.90
2019-02-20T06:48:00.499Z,99.90
2019-02-20T06:50:29.219Z,99.90
2019-02-20T06:52:57.979Z,99.90
2019-02-20T06:55:26.685Z,99.90
2019-02-20T06:57:55.403Z,99.90
2019-02-20T07:00:24.144Z,99.90
2019-02-20T07:02:52.788Z,99.90
2019-02-20T07:05:30.526Z,99.90
2019-02-20T07:08:20.297Z,99.90
2019-02-20T07:11:22.341Z,99.90
2019-02-20T07:13:57.140Z,99.90
2019-02-20T07:16:51.193Z,99.90
2019-02-20T07:19:34.804Z,99.90
2019-02-20T07:22:12.208Z,99.60
2019-02-20T07:24:52.575Z,99.20
2019-02-20T07:27:34.812Z,98.90
2019-02-20T07:30:05.636Z,98.90
2019-02-20T07:32:34.384Z,99.40
2019-02-20T07:35:03.106Z,98.50
2019-02-20T07:37:33.117Z,97.80
2019-02-20T07:40:01.971Z,97.80
2019-02-20T07:42:30.685Z,98.10
2019-02-20T07:45:01.424Z,98.40
2019-02-20T07:47:30.136Z,98.30
2019-02-20T07:49:58.856Z,98.40
2019-02-20T07:52:27.578Z,98.40
2019-02-20T07:54:56.294Z,98.40
2019-02-20T07:57:25.044Z,98.60
2019-02-20T07:59:53.775Z,98.70
2019-02-20T08:02:22.509Z,98.30
2019-02-20T08:04:51.230Z,97.70
2019-02-20T08:07:19.939Z,97.70
2019-02-20T08:09:48.679Z,97.80
2019-02-20T08:12:17.393Z,97.50
2019-02-20T08:14:46.153Z,97.40
2019-02-20T08:17:15.778Z,97.20
2019-02-20T08:19:44.483Z,97.00
2019-02-20T08:22:13.229Z,96.90
2019-02-20T08:24:41.931Z,97.00
2019-02-20T08:27:10.644Z,96.50
2019-02-20T08:29:39.362Z,96.70
2019-02-20T08:32:08.144Z,96.60
2019-02-20T08:34:36.902Z,96.30
2019-02-20T08:37:05.608Z,96.50
2019-02-20T08:39:34.320Z,96.40
2019-02-20T08:42:03.042Z,96.20
2019-02-20T08:44:31.744Z,96.30
2019-02-20T08:47:00.496Z,96.40
2019-02-20T08:49:29.203Z,96.30
2019-02-20T08:51:57.922Z,96.40
2019-02-20T08:54:26.654Z,96.70
2019-02-20T08:56:55.361Z,96.20
2019-02-20T08:59:24.109Z,96.40
2019-02-20T09:01:52.817Z,96.50
2019-02-20T09:04:21.528Z,96.40
2019-02-20T09:06:50.249Z,96.40
2019-02-20T09:09:18.963Z,96.60
2019-02-20T09:11:47.627Z,96.70
2019-02-20T09:14:16.341Z,96.60
2019-02-20T09:16:45.058Z,96.60
2019-02-20T09:19:13.775Z,96.60
2019-02-20T09:21:42.491Z,96.60
2019-02-20T09:24:11.242Z,96.60
2019-02-20T09:26:39.953Z,96.70
2019-02-20T09:29:08.660Z,96.40
2019-02-20T09:31:37.380Z,96.30
2019-02-20T09:34:06.091Z,96.40
2019-02-20T09:36:34.836Z,96.40
2019-02-20T09:39:33.073Z,96.30
2019-02-20T09:42:01.841Z,96.20
2019-02-20T09:44:33.467Z,96.20
2019-02-20T09:47:06.867Z,96.20
2019-02-20T09:49:35.555Z,96.20
2019-02-20T09:52:04.259Z,96.00
2019-02-20T09:54:33.004Z,95.90
2019-02-20T09:57:01.759Z,95.80
2019-02-20T09:59:30.503Z,96.10
2019-02-20T10:01:59.226Z,95.70
2019-02-20T10:04:27.957Z,95.50
2019-02-20T10:06:56.659Z,95.80
2019-02-20T10:09:25.383Z,95.20
2019-02-20T10:11:54.128Z,95.20
2019-02-20T10:14:22.844Z,95.50
2019-02-20T10:16:52.491Z,95.80
2019-02-20T10:19:21.211Z,95.40
2019-02-20T10:21:49.926Z,95.10
2019-02-20T10:24:18.672Z,95.20
2019-02-20T10:26:47.383Z,95.30
2019-02-20T10:29:16.096Z,95.30
2019-02-20T10:31:44.818Z,95.00
2019-02-20T10:34:13.530Z,95.20
2019-02-20T10:36:42.269Z,94.90
2019-02-20T10:39:10.983Z,94.50
2019-02-20T10:41:39.701Z,93.80
2019-02-20T10:44:08.420Z,93.90
2019-02-20T10:46:37.141Z,93.70
2019-02-20T10:49:05.887Z,93.40
2019-02-20T10:51:34.605Z,93.40
2019-02-20T10:54:03.322Z,93.20
2019-02-20T10:56:32.042Z,93.00
2019-02-20T10:59:00.743Z,93.20
2019-02-20T11:01:29.508Z,93.10
2019-02-20T11:03:58.211Z,93.30
2019-02-20T11:06:26.924Z,93.50
2019-02-20T11:08:55.708Z,93.60
2019-02-20T11:11:24.420Z,93.70
2019-02-20T11:13:53.176Z,93.80
2019-02-20T11:16:21.892Z,92.60
2019-02-20T11:18:51.429Z,92.20
2019-02-20T11:21:20.146Z,92.10
2019-02-20T11:23:48.856Z,92.70
2019-02-20T11:26:18.659Z,92.00
2019-02-20T11:28:47.544Z,91.70
2019-02-20T11:31:16.249Z,91.50
2019-02-20T11:33:44.958Z,91.00
2019-02-20T11:36:13.675Z,90.00
2019-02-20T11:38:42.424Z,87.40
2019-02-20T11:41:11.204Z,86.70
2019-02-20T11:43:39.927Z,85.90
2019-02-20T11:46:08.648Z,86.40
2019-02-20T11:48:37.361Z,86.40
2019-02-20T11:51:06.100Z,85.60
2019-02-20T11:53:37.151Z,85.40
2019-02-20T11:56:05.168Z,85.50
2019-02-20T11:58:33.889Z,83.40
2019-02-20T12:01:02.600Z,78.80
2019-02-20T12:03:31.332Z,73.80
2019-02-20T12:05:59.972Z,73.10
2019-02-20T12:08:28.677Z,72.20
2019-02-20T12:10:57.388Z,71.40
2019-02-20T12:13:26.102Z,71.80
2019-02-20T12:15:54.845Z,72.80
2019-02-20T12:18:23.564Z,72.30
2019-02-20T12:20:53.167Z,72.70
2019-02-20T12:23:21.878Z,73.00
2019-02-20T12:25:50.588Z,73.00
2019-02-20T12:28:19.337Z,73.30
2019-02-20T12:30:48.126Z,74.10
2019-02-20T12:33:16.832Z,74.40
2019-02-20T12:35:45.548Z,73.30
2019-02-20T12:38:14.259Z,73.70
2019-02-20T12:40:43.017Z,74.80
2019-02-20T12:43:11.730Z,76.40
2019-02-20T12:45:40.430Z,77.70
2019-02-20T12:48:09.153Z,79.20
2019-02-20T12:50:37.874Z,80.20
2019-02-20T12:53:06.611Z,81.30
2019-02-20T12:55:35.400Z,81.60
2019-02-20T12:58:04.116Z,82.00
2019-02-20T13:00:33.235Z,82.30
2019-02-20T13:03:01.991Z,82.80
2019-02-20T13:05:30.817Z,80.10
2019-02-20T13:07:59.523Z,80.90
2019-02-20T13:10:28.252Z,79.60
2019-02-20T13:12:56.998Z,79.30
2019-02-20T13:15:27.278Z,79.50
2019-02-20T13:17:56.216Z,78.70
2019-02-20T13:20:25.029Z,79.30
2019-02-20T13:22:54.609Z,80.70
2019-02-20T13:25:23.330Z,81.50
2019-02-20T13:27:52.051Z,80.20
2019-02-20T13:30:20.784Z,81.00
2019-02-20T13:32:50.993Z,81.50
2019-02-20T13:35:19.827Z,81.80
2019-02-20T13:37:48.539Z,82.20
2019-02-20T13:40:17.258Z,82.30
2019-02-20T13:42:45.993Z,82.10
2019-02-20T13:45:14.700Z,81.70
2019-02-20T13:47:43.418Z,81.30
2019-02-20T13:50:12.613Z,79.50
2019-02-20T13:52:42.111Z,79.60
2019-02-20T13:55:10.854Z,78.60
2019-02-20T13:57:39.563Z,78.60
2019-02-20T14:00:13.191Z,78.20
2019-02-20T14:02:41.807Z,77.20
2019-02-20T14:05:10.840Z,78.40
2019-02-20T14:07:40.197Z,77.50
2019-02-20T14:10:12.760Z,77.30
2019-02-20T14:12:41.516Z,78.90
2019-02-20T14:15:11.908Z,79.50
2019-02-20T14:17:40.646Z,80.60
2019-02-20T14:20:11.777Z,81.40
2019-02-20T14:22:40.787Z,83.30
2019-02-20T14:25:10.703Z,82.60
2019-02-20T14:27:39.419Z,81.30
2019-02-20T14:30:10.503Z,81.30
2019-02-20T14:32:39.260Z,81.50
2019-02-20T14:35:15.268Z,80.90
2019-02-20T14:37:44.123Z,81.10
2019-02-20T14:40:12.792Z,80.90
2019-02-20T14:42:41.504Z,80.70
2019-02-20T14:45:12.420Z,82.20
2019-02-20T14:47:41.139Z,80.40
2019-02-20T14:50:11.291Z,77.60
2019-02-20T14:52:40.304Z,76.30
2019-02-20T14:55:10.312Z,76.60
2019-02-20T14:57:39.019Z,76.90
2019-02-20T15:00:15.705Z,77.00
2019-02-20T15:02:44.473Z,75.10
2019-02-20T15:05:13.392Z,73.90
2019-02-20T15:07:42.102Z,71.40
2019-02-20T15:10:11.086Z,72.40
2019-02-20T15:12:39.796Z,71.00
2019-02-20T15:15:11.072Z,70.70
2019-02-20T15:17:39.869Z,71.10
2019-02-20T15:20:11.128Z,72.50
2019-02-20T15:22:40.030Z,74.20
2019-02-20T15:25:10.269Z,74.30
2019-02-20T15:27:38.983Z,71.40
2019-02-20T15:30:13.245Z,71.00
2019-02-20T15:32:42.017Z,69.90
2019-02-20T15:35:10.727Z,71.30
2019-02-20T15:37:39.515Z,71.50
2019-02-20T15:40:11.272Z,72.90
2019-02-20T15:42:40.027Z,73.70
2019-02-20T15:45:10.446Z,74.80
2019-02-20T15:47:39.273Z,75.10
2019-02-20T15:50:10.943Z,74.00
2019-02-20T15:52:39.857Z,74.00
2019-02-20T15:55:11.405Z,73.60
2019-02-20T15:57:40.272Z,72.60
2019-02-20T16:00:18.292Z,73.20
2019-02-20T16:02:47.019Z,73.10
2019-02-20T16:05:16.093Z,73.10
2019-02-20T16:07:44.836Z,73.10
2019-02-20T16:10:13.615Z,74.70
2019-02-20T16:12:43.119Z,75.50
2019-02-20T16:15:14.454Z,76.40
2019-02-20T16:17:44.748Z,76.00
2019-02-20T16:20:13.761Z,75.50
2019-02-20T16:22:42.473Z,75.50
2019-02-20T16:25:13.672Z,74.90
2019-02-20T16:27:47.024Z,75.30
2019-02-20T16:30:14.251Z,76.20
2019-02-20T16:32:42.971Z,76.90
2019-02-20T16:35:12.404Z,77.10
2019-02-20T16:37:41.097Z,75.80
2019-02-20T16:40:12.501Z,74.60
2019-02-20T16:42:41.208Z,75.20
2019-02-20T16:45:39.618Z,73.30
2019-02-20T16:48:08.328Z,73.60
2019-02-20T16:50:37.072Z,75.30
2019-02-20T16:53:05.778Z,76.90
2019-02-20T16:55:34.499Z,76.20
2019-02-20T16:58:04.024Z,75.80
2019-02-20T17:00:33.220Z,76.30
2019-02-20T17:03:01.968Z,75.90
2019-02-20T17:05:30.688Z,75.60
2019-02-20T17:07:59.406Z,76.10
2019-02-20T17:10:28.108Z,74.10
2019-02-20T17:12:56.819Z,73.10
2019-02-20T17:15:25.539Z,72.80
2019-02-20T17:17:54.261Z,73.60
2019-02-20T17:20:22.996Z,73.90
2019-02-20T17:22:51.713Z,73.70
2019-02-20T17:25:20.603Z,74.00
2019-02-20T17:27:49.317Z,74.70
2019-02-20T17:30:19.127Z,75.60
2019-02-20T17:32:48.381Z,75.10
2019-02-20T17:35:17.369Z,75.70
2019-02-20T17:37:46.117Z,76.10
2019-02-20T17:40:15.220Z,75.80
2019-02-20T17:42:43.936Z,75.30
2019-02-20T17:45:17.628Z,75.10
2019-02-20T17:47:46.777Z,74.10
2019-02-20T17:50:23.402Z,73.40
2019-02-20T17:52:52.149Z,72.50
2019-02-20T17:55:20.844Z,72.80
2019-02-20T17:57:49.568Z,73.60
2019-02-20T18:00:20.129Z,74.50
2019-02-20T18:02:48.912Z,74.10
2019-02-20T18:05:17.732Z,74.00
2019-02-20T18:07:49.906Z,72.90
2019-02-20T18:10:16.784Z,73.20
2019-02-20T18:12:45.497Z,74.40
2019-02-20T18:15:15.013Z,75.20
2019-02-20T18:17:43.794Z,74.70
2019-02-20T18:20:12.608Z,74.00
2019-02-20T18:22:41.356Z,74.30
2019-02-20T18:25:11.401Z,74.30
2019-02-20T18:27:40.122Z,74.20
2019-02-20T18:30:14.283Z,73.20
2019-02-20T18:32:43.009Z,72.70
2019-02-20T18:35:13.017Z,73.20
2019-02-20T18:37:41.739Z,71.40
2019-02-20T18:40:12.845Z,71.40
2019-02-20T18:42:41.568Z,72.20
2019-02-20T18:45:12.409Z,72.70
2019-02-20T18:47:41.135Z,73.30
2019-02-20T18:50:14.690Z,71.10
2019-02-20T18:52:43.416Z,71.50
2019-02-20T18:55:13.466Z,69.80
2019-02-20T18:57:42.214Z,70.40
2019-02-20T19:00:19.009Z,71.00
2019-02-20T19:02:47.728Z,72.20
2019-02-20T19:05:18.684Z,73.80
2019-02-20T19:07:47.014Z,74.20
2019-02-20T19:10:36.816Z,74.10
2019-02-20T19:13:37.058Z,72.80
2019-02-20T19:16:20.742Z,71.40
2019-02-20T19:19:02.411Z,71.20
2019-02-20T19:21:46.815Z,71.10
2019-02-20T19:24:36.285Z,71.20
2019-02-20T19:27:13.687Z,71.10
2019-02-20T19:29:56.593Z,69.60
2019-02-20T19:32:58.421Z,69.90
2019-02-20T19:35:48.121Z,69.70
2019-02-20T19:38:25.764Z,69.70
2019-02-20T19:41:02.723Z,69.10
2019-02-20T19:43:57.215Z,68.90
2019-02-20T19:46:31.368Z,68.80
2019-02-20T19:49:21.011Z,70.50
2019-02-20T19:52:04.756Z,69.70
2019-02-20T19:54:39.229Z,69.90
2019-02-20T19:57:11.096Z,69.80
2019-02-20T19:59:46.093Z,71.50
2019-02-20T20:02:38.852Z,72.20
2019-02-20T20:05:14.512Z,72.50
2019-02-20T20:07:52.317Z,72.70
2019-02-20T20:10:52.930Z,72.60
2019-02-20T20:13:36.524Z,71.90
2019-02-20T20:16:20.588Z,71.00
2019-02-20T20:18:55.000Z,71.00
2019-02-20T20:21:26.628Z,72.10
2019-02-20T20:24:27.190Z,73.30
2019-02-20T20:27:19.756Z,72.50
2019-02-20T20:30:00.418Z,71.10
2019-02-20T20:32:52.617Z,70.70
2019-02-20T20:35:20.452Z,71.50
2019-02-20T20:38:07.052Z,71.10
2019-02-20T20:40:47.476Z,71.10
2019-02-20T20:43:31.200Z,70.20
2019-02-20T20:46:08.791Z,69.80
2019-02-20T20:48:40.436Z,70.30
2019-02-20T20:51:24.012Z,69.80
2019-02-20T20:54:12.320Z,70.90
2019-02-20T20:57:03.604Z,72.20
2019-02-20T20:59:53.089Z,71.30
2019-02-20T21:02:27.346Z,72.00
2019-02-20T21:05:04.940Z,72.30
2019-02-20T21:07:42.609Z,73.70
2019-02-20T21:10:14.263Z,75.00
2019-02-20T21:12:48.808Z,75.90
2019-02-20T21:15:43.012Z,76.50
2019-02-20T21:18:32.413Z,77.10
2019-02-20T21:21:04.079Z,76.80
2019-02-20T21:23:41.650Z,76.40
2019-02-20T21:26:34.259Z,75.30
2019-02-20T21:29:28.893Z,72.70
2019-02-20T21:32:03.227Z,73.10
2019-02-20T21:35:02.130Z,74.70
2019-02-20T21:37:42.300Z,75.70
2019-02-20T21:40:34.963Z,74.90
2019-02-20T21:43:12.543Z,75.70
2019-02-20T21:46:02.052Z,75.90
2019-02-20T21:48:36.451Z,74.70
2019-02-20T21:51:08.152Z,72.30
2019-02-20T21:54:03.790Z,72.30
2019-02-20T21:56:41.098Z,72.60
2019-02-20T21:59:18.517Z,72.40
2019-02-20T22:01:59.171Z,72.60
2019-02-20T22:04:45.736Z,73.40
2019-02-20T22:07:26.687Z,73.60
2019-02-20T22:10:04.307Z,72.80
2019-02-20T22:12:53.892Z,74.30
2019-02-20T22:15:48.096Z,73.90
2019-02-20T22:18:37.506Z,74.30
2019-02-20T22:21:24.201Z,74.30
2019-02-20T22:23:55.989Z,73.20
2019-02-20T22:26:33.587Z,73.10
2019-02-20T22:29:21.895Z,72.80
2019-02-20T22:32:14.481Z,72.70
2019-02-20T22:34:49.888Z,72.40
2019-02-20T22:37:36.180Z,72.10
2019-02-20T22:40:16.638Z,73.40
2019-02-20T22:43:10.771Z,72.60
2019-02-20T22:45:54.556Z,72.40
2019-02-20T22:48:28.936Z,72.10
2019-02-20T22:51:00.635Z,72.90
2019-02-20T22:53:48.497Z,73.50
2019-02-20T22:56:49.152Z,73.80
2019-02-20T23:00:01.205Z,74.30
2019-02-20T23:02:34.956Z,74.10
2019-02-20T23:05:40.149Z,72.60
2019-02-20T23:08:14.492Z,71.60
2019-02-20T23:11:29.777Z,71.70
2019-02-20T23:14:07.500Z,71.50
2019-02-20T23:16:36.221Z,72.60
2019-02-20T23:19:04.936Z,71.10
2019-02-20T23:21:33.656Z,71.20
2019-02-20T23:24:02.375Z,70.80
2019-02-20T23:26:31.124Z,70.70
2019-02-20T23:28:59.845Z,70.80
2019-02-20T23:31:28.560Z,71.10
2019-02-20T23:33:57.288Z,70.70
2019-02-20T23:36:26.867Z,70.80
2019-02-20T23:38:55.628Z,71.40
2019-02-20T23:41:24.340Z,72.30
2019-02-20T23:43:54.314Z,73.20
2019-02-20T23:46:23.032Z,73.30
2019-02-20T23:48:51.748Z,72.80
2019-02-20T23:51:20.487Z,72.90
2019-02-20T23:53:49.207Z,72.50
2019-02-20T23:56:17.920Z,71.90
2019-02-20T23:58:46.648Z,71.50
